Smith Valley, Nevada Weather observations

Data are for 10 minute period ending at time listed.
 Day   Time   Solar   Ave.   Ave.  Ave.  Vector  Max.   Baro.   Total    
  of    of     Rad.   Air    Rel.  Wind   Wind   Wind  Press.  Precip.   
Year   Day            Temp.  Hum.  Speed  Dir.   Gust                    
2016   (PST)  Kw/m2    F      %     mph   deg.    mph    mb.     in.     
-------------------------------------------------------------------------
 239    7:50   0.39   61.5    30    1.6   354     3.4   854.6    0.00 
 239    8:00   0.42   64.3    30    1.0   257     1.9   854.6    0.00 
 239    8:10   0.45   66.8    26    0.7   240     2.2   854.6    0.00 
 239    8:20   0.48   67.4    23    1.3    81     2.3   854.6    0.00 
 239    8:30   0.51   68.9    22    1.1    69     3.0   854.6    0.00 
 239    8:40   0.54   70.2    21    1.0   117     2.5   854.7    0.00 
 239    8:50   0.57   71.7    20    0.9   102     2.8   854.7    0.00 
 239    9:00   0.59   73.0    24    1.5   234     5.8   854.7    0.00 
 239    9:10   0.62   71.2    25    3.2   319     6.0   854.8    0.00 
 239    9:20   0.64   71.1    28    3.6   296     6.3   854.7    0.00 
 239    9:30   0.67   71.7    25    3.5   298     5.3   854.7    0.00 
 239    9:40   0.69   72.6    24    3.5   301     7.7   854.7    0.00 
 239    9:50   0.71   73.5    25    2.9   305     5.9   854.6    0.00 
 239   10:00   0.73   74.3    23    4.3   302     7.1   854.6    0.00 
 239   10:10   0.75   74.8    21    4.6   314     9.0   854.6    0.00 
 239   10:20   0.75   76.8    14    3.1    28     6.5   854.5    0.00 
 239   10:30   0.78   78.2    13    3.2    54     6.7   854.4    0.00 
 239   10:40   0.79   78.9    15    3.5   353     7.0   854.3    0.00 
 239   10:50   0.81   80.1    13    2.4    37     8.6   854.2    0.00 
 239   11:00   0.81   81.2    14    4.3     9     8.6   854.1    0.00 
 239   11:10   0.82   80.8    13    3.5    32     7.8   854.0    0.00 
 239   11:20   0.83   80.9    14    3.7    11     7.9   853.9    0.00 
 239   11:30   0.84   82.3    12    2.7    49     8.5   853.7    0.00 
 239   11:40   0.85   82.9    12    3.5    52     9.1   853.6    0.00 
 239   11:50   0.86   83.3    12    4.0    32     8.6   853.5    0.00 
 239   12:00   0.85   83.8    12    4.1   347     9.4   853.4    0.00 
 239   12:10   0.85   83.9    16    2.4   272     7.2   853.3    0.00 
 239   12:20   0.85   85.0    14    2.9    12     5.2   853.2    0.00 
 239   12:30   0.85   85.5    12    3.7   140     6.4   853.1    0.00 
 239   12:40   0.85   86.1    12    3.2   112     6.7   853.0    0.00 
 239   12:50   0.84   85.6    12    5.2     9    12.9   852.9    0.00 
 239   13:00   0.83   85.9    13    4.0     4    14.7   852.9    0.00 
 239   13:10   0.83   86.6    11    4.7    25    11.3   852.7    0.00 
 239   13:20   0.82   86.6    12    3.1    74     8.3   852.6    0.00 
 239   13:30   0.81   86.3    14    5.8   340    15.3   852.5    0.00 
 239   13:40   0.74   86.2    11    5.8    26    14.1   852.4    0.00 
 239   13:50   0.80   86.5    12    8.6    24    16.7   852.2    0.00 
 239   14:00   0.50   86.1    11    8.7    20    16.4   852.1    0.00 
 239   14:10   0.33   85.1    11    6.3    28    11.2   852.0    0.00 
 239   14:20   0.66   85.6    11    8.4    32    17.8   852.0    0.00 
 239   14:30   0.40   86.0    11    7.7    24    14.5   852.0    0.00 
 239   14:40   0.17   84.5    12    8.3    44    15.1   852.0    0.00 
 239   14:50   0.15   83.7    12    6.4     4    12.2   852.0    0.00 
 239   15:00   0.20   84.1    12    6.3    37    13.4   852.0    0.00 
 239   15:10   0.37   84.5    12    6.1    41    15.6   852.0    0.00 
 239   15:20   0.38   86.0    12    4.2    25     9.5   852.1    0.00 
 239   15:30   0.64   85.0    16   10.4   328    17.6   852.0    0.00 
 239   15:40   0.55   83.4    20    8.8   300    15.4   852.0    0.00 
 239   15:50   0.51   82.4    22    9.3   295    14.4   852.1    0.00 
 239   16:00   0.47   82.4    20    9.2   306    15.1   852.1    0.00 
 239   16:10   0.43   81.8    21   10.1   293    16.4   852.1    0.00 
 239   16:20   0.39   82.2    19    9.6   317    20.8   852.1    0.00 
 239   16:30   0.36   81.8    20    8.9   297    13.5   852.1    0.00 
 239   16:40   0.33   80.8    22    7.6   297    13.7   852.2    0.00 
 239   16:50   0.29   80.7    20    8.4   307    14.0   852.2    0.00 
 239   17:00   0.26   80.2    22    7.7   281    13.2   852.2    0.00 
 239   17:10   0.23   79.5    22    7.3   289    12.6   852.2    0.00 
 239   17:20   0.20   78.7    22    7.4   293    12.0   852.2    0.00 
 239   17:30   0.17   78.5    21    9.2   288    15.2   852.2    0.00 
 239   17:40   0.14   78.2    21    8.5   285    14.6   852.2    0.00 
 239   17:50   0.11   78.3    20    9.0   276    15.6   852.3    0.00 
 239   18:00   0.06   77.4    20    8.3   272    17.0   852.3    0.00 
 239   18:10   0.02   76.7    20    9.2   274    15.9   852.3    0.00 
 239   18:20   0.02   75.6    21    7.5   282    13.9   852.4    0.00 
 239   18:30   0.01   75.6    21    9.2   278    15.2   852.4    0.00 
 239   18:40   0.01   75.2    21    8.9   274    15.9   852.4    0.00 
 239   18:50   0.00   75.2    21    9.6   271    15.2   852.4    0.00 
 239   19:00   0.00   74.4    22    9.7   272    16.1   852.5    0.00 
 239   19:10   0.00   74.1    22    9.4   260    16.0   852.6    0.00 
 239   19:20   0.00   73.9    22    9.9   263    16.0   852.6    0.00 
 239   19:30   0.00   74.0    21   11.1   270    17.8   852.7    0.00 
 239   19:40   0.00   74.3    21   10.6   270    17.5   853.0    0.00 
 239   19:50   0.00   73.8    22    7.4   276    13.5   853.3    0.00 
 239   20:00   0.00   73.4    22    7.8   317    13.0   853.5    0.00 
 239   20:10   0.00   75.1    20    4.7   321    12.6   853.5    0.00 
 239   20:20   0.00   73.7    21    1.6    12     4.7   853.6    0.00 
 239   20:30   0.00   76.2    18    4.9   198    13.4   853.6    0.00 
 239   20:40   0.00   73.7    23    3.3   277     7.7   853.7    0.00 
 239   20:50   0.00   69.8    26    3.0   272     6.4   853.8    0.00 
 239   21:00   0.00   70.9    25    5.9   261    13.3   853.8    0.00 
 239   21:10   0.00   70.7    25    6.9   275    13.2   853.7    0.00 
 239   21:20   0.00   70.6    25    5.6   256    10.6   853.8    0.00 
 239   21:30   0.00   68.6    27    5.7   218     8.7   853.8    0.00 
 239   21:40   0.00   66.0    31    4.8   200     7.0   853.8    0.00 
 239   21:50   0.00   63.6    34    4.1   202     5.3   853.8    0.00 
 239   22:00   0.00   64.0    33    2.1   201     4.1   853.8    0.00 
 239   22:10   0.00   64.2    34    0.8   193     1.9   853.7    0.00 
 239   22:20   0.00   61.4    39    1.6   133     2.9   853.6    0.00 
 239   22:30   0.00   62.7    34    2.1   110     4.0   853.5    0.00 
 239   22:40   0.00   60.9    40    3.1   122     5.0   853.6    0.00 
 239   22:50   0.00   59.3    42    3.7   142     5.0   853.5    0.00 
 239   23:00   0.00   58.5    43    1.9   191     5.8   853.5    0.00 
 239   23:10   0.00   56.5    52    1.7   157     3.6   853.6    0.00 
 239   23:20   0.00   56.3    48    1.4   118     2.6   853.5    0.00 
 239   23:30   0.00   57.8    46    2.1   133     2.9   853.5    0.00 
 239   23:40   0.00   55.7    47    2.1   123     3.8   853.5    0.00 
 239   23:50   0.00   54.6    53    2.5    34     6.6   853.5    0.00 
 240    0:00   0.00   54.4    48    3.0    43     4.5   853.6    0.00 
 240    0:10   0.00   54.5    46    4.7    63     7.0   853.6    0.00 
 240    0:20   0.00   55.6    45    3.7    59     6.4   853.7    0.00 
 240    0:30   0.00   54.8    51    2.7   267     6.1   853.7    0.00 
 240    0:40   0.00   52.2    60    4.0   303     5.8   853.7    0.00 
 240    0:50   0.00   52.8    56    2.7   313     4.2   853.8    0.00 
 240    1:00   0.00   52.4    58    2.6   297     4.4   853.8    0.00 
 240    1:10   0.00   52.9    57    2.1   303     3.8   853.8    0.00 
 240    1:20   0.00   51.0    63    0.7   259     3.4   853.9    0.00 
 240    1:30   0.00   50.2    64    0.4   284     1.9   854.0    0.00 
 240    1:40   0.00   52.4    57    2.1   300     3.3   854.1    0.00 
 240    1:50   0.00   50.4    59    0.2   260     1.8   854.2    0.00 
 240    2:00   0.00   50.6    56    2.4    24     3.3   854.2    0.00 
 240    2:10   0.00   48.6    62    0.8   148     2.3   854.2    0.00 
 240    2:20   0.00   47.7    65    1.5   159     3.7   854.3    0.00 
 240    2:30   0.00   48.2    67    1.7   176     2.8   854.3    0.00 
 240    2:40   0.00   47.0    70    2.7   214     4.4   854.4    0.00 
 240    2:50   0.00   46.1    72    1.6   180     3.3   854.3    0.00 
 240    3:00   0.00   46.3    72    1.5    96     3.0   854.3    0.00 
 240    3:10   0.00   46.5    74    1.6   130     2.9   854.3    0.00 
 240    3:20   0.00   47.0    70    1.3    87     3.4   854.4    0.00 
 240    3:30   0.00   47.8    70    1.7   116     3.4   854.5    0.00 
 240    3:40   0.00   47.9    68    1.1   139     2.1   854.5    0.00 
 240    3:50   0.00   47.4    66    0.2   283     2.1   854.6    0.00 
 240    4:00   0.00   46.6    68    0.5    88     1.9   854.7    0.00 
 240    4:10   0.00   46.1    66    0.5   172     1.7   854.8    0.00 
 240    4:20   0.00   44.4    70    0.9   184     2.0   854.9    0.00 
 240    4:30   0.00   44.4    74    2.2   252     4.3   854.9    0.00 
 240    4:40   0.00   43.6    74    1.1   236     3.1   854.9    0.00 
 240    4:50   0.00   43.4    74    0.8   235     1.8   854.9    0.00 
 240    5:00   0.00   43.8    70    1.3   202     2.6   855.0    0.00 
 240    5:10   0.00   43.7    72    0.5   107     1.7   855.1    0.00 
 240    5:20   0.00   43.7    73    0.2   158     1.8   855.2    0.00 
 240    5:30   0.01   43.5    76    3.3   212     4.1   855.3    0.00 
 240    5:40   0.01   42.3    77    1.6   275     3.2   855.4    0.00 
 240    5:50   0.04   43.4    75    0.8   103     2.8   855.5    0.00 
 240    6:00   0.06   45.9    70    0.7   102     3.1   855.5    0.00 
 240    6:10   0.08   47.9    66    2.4   232     3.7   855.5    0.00 
 240    6:20   0.10   49.9    59    1.6   242     2.4   855.6    0.00 
 240    6:30   0.13   53.7    56    2.3   281     3.4   855.6    0.00 
 240    6:40   0.16   54.7    52    2.5   295     3.4   855.6    0.00 
 240    6:50   0.19   56.2    50    1.7   304     2.3   855.7    0.00 
 240    7:00   0.22   59.3    43    0.4   139     1.5   855.7    0.00 
 240    7:10   0.25   62.7    36    0.2   106     1.2   855.6    0.00 
 240    7:20   0.28   63.6    39    0.8   236     1.8   855.5    0.00 
 240    7:30   0.32   63.6    38    0.2   308     1.0   855.4    0.00 
 240    7:40   0.35   65.4    32    1.2    78     2.6   855.4    0.00 

Return to Smith Valley graphs page.


Western Regional Climate Center,wrcc@dri.edu